createdAt,value
2022-12-31T00:01:39.990Z,7.91
2022-12-31T00:04:08.674Z,7.87
2022-12-31T00:06:38.224Z,7.87
2022-12-31T00:09:08.466Z,7.86
2022-12-31T00:11:38.496Z,7.85
2022-12-31T00:14:07.649Z,7.85
2022-12-31T00:16:41.950Z,7.87
2022-12-31T00:19:12.411Z,7.88
2022-12-31T00:21:41.105Z,7.90
2022-12-31T00:24:13.026Z,7.92
2022-12-31T00:26:42.361Z,7.95
2022-12-31T00:29:11.073Z,7.98
2022-12-31T00:31:39.916Z,8.02
2022-12-31T00:34:10.307Z,8.06
2022-12-31T00:36:40.091Z,8.10
2022-12-31T00:39:08.918Z,8.12
2022-12-31T00:41:38.290Z,8.13
2022-12-31T00:44:07.133Z,8.11
2022-12-31T00:49:07.649Z,8.12
2022-12-31T00:51:36.576Z,8.15
2022-12-31T00:54:05.178Z,8.20
2022-12-31T00:56:34.257Z,8.25
2022-12-31T00:59:02.880Z,8.29
2022-12-31T01:01:37.412Z,8.31
2022-12-31T01:04:12.041Z,8.30
2022-12-31T01:06:41.824Z,8.27
2022-12-31T01:09:11.903Z,8.23
2022-12-31T01:11:41.155Z,8.20
2022-12-31T01:14:13.662Z,8.18
2022-12-31T01:16:50.891Z,8.16
2022-12-31T01:19:22.455Z,8.13
2022-12-31T01:21:51.976Z,8.11
2022-12-31T01:24:21.471Z,8.10
2022-12-31T01:26:51.925Z,8.07
2022-12-31T01:29:21.535Z,8.03
2022-12-31T01:31:50.237Z,7.99
2022-12-31T01:34:18.903Z,7.97
2022-12-31T01:36:48.335Z,7.97
2022-12-31T01:39:16.897Z,7.99
2022-12-31T01:41:47.425Z,8.02
2022-12-31T01:44:25.542Z,8.06
2022-12-31T01:46:58.671Z,8.11
2022-12-31T01:49:36.664Z,8.15
2022-12-31T01:52:16.223Z,8.18
2022-12-31T01:54:53.063Z,8.20
2022-12-31T01:57:24.705Z,8.22
2022-12-31T01:59:56.451Z,8.25
2022-12-31T02:02:26.033Z,8.30
2022-12-31T02:05:00.266Z,8.34
2022-12-31T02:07:29.781Z,8.37
2022-12-31T02:09:59.575Z,8.39
2022-12-31T02:12:28.229Z,8.40
2022-12-31T02:14:57.128Z,8.37
2022-12-31T02:17:56.465Z,8.34
2022-12-31T02:21:29.257Z,8.27
2022-12-31T02:24:37.056Z,8.21
2022-12-31T02:27:34.386Z,8.17
2022-12-31T02:30:09.370Z,8.15
2022-12-31T02:32:46.906Z,8.12
2022-12-31T02:35:35.077Z,8.10
2022-12-31T02:38:10.022Z,8.06
2022-12-31T02:40:39.782Z,8.03
2022-12-31T02:43:08.395Z,8.01
2022-12-31T02:45:51.153Z,8.01
2022-12-31T02:48:37.410Z,8.03
2022-12-31T02:51:12.278Z,8.05
2022-12-31T02:54:03.011Z,8.07
2022-12-31T02:56:49.999Z,8.09
2022-12-31T02:59:40.766Z,8.12
2022-12-31T03:02:16.616Z,8.13
2022-12-31T03:04:57.595Z,8.14
2022-12-31T03:07:29.214Z,8.16
2022-12-31T03:09:59.669Z,8.17
2022-12-31T03:12:50.336Z,8.18
2022-12-31T03:15:26.591Z,8.18
2022-12-31T03:17:55.330Z,8.19
2022-12-31T03:20:51.121Z,8.20
2022-12-31T03:23:24.517Z,8.22
2022-12-31T03:25:55.250Z,8.22
2022-12-31T03:28:26.833Z,8.23
2022-12-31T03:30:58.631Z,8.28
2022-12-31T03:33:31.357Z,8.30
2022-12-31T03:36:03.904Z,8.33
2022-12-31T03:38:32.721Z,8.37
2022-12-31T03:41:01.892Z,8.40
2022-12-31T03:43:30.724Z,8.43
2022-12-31T03:46:01.826Z,8.46
2022-12-31T03:48:31.289Z,8.49
2022-12-31T03:50:59.900Z,8.50
2022-12-31T03:53:28.508Z,8.52
2022-12-31T03:55:57.852Z,8.54
2022-12-31T03:58:26.561Z,8.57
2022-12-31T04:00:55.266Z,8.60
2022-12-31T04:03:24.634Z,8.65
2022-12-31T04:05:56.485Z,8.69
2022-12-31T04:08:25.822Z,8.72
2022-12-31T04:10:54.811Z,8.73
2022-12-31T04:13:23.467Z,8.72
2022-12-31T04:15:52.732Z,8.69
2022-12-31T04:18:21.490Z,8.66
2022-12-31T04:20:50.087Z,8.63
2022-12-31T04:23:19.273Z,8.60
2022-12-31T04:25:47.814Z,8.60
2022-12-31T04:28:16.448Z,8.61
2022-12-31T04:30:45.868Z,8.63
2022-12-31T04:33:14.732Z,8.64
2022-12-31T04:35:43.378Z,8.63
2022-12-31T04:38:12.328Z,8.61
2022-12-31T04:41:01.208Z,8.58
2022-12-31T04:43:30.889Z,8.54
2022-12-31T04:45:59.833Z,8.53
2022-12-31T04:48:28.774Z,8.54
2022-12-31T04:50:57.703Z,8.56
2022-12-31T04:53:26.337Z,8.58
2022-12-31T04:55:56.188Z,8.59
2022-12-31T04:58:25.481Z,8.61
2022-12-31T05:00:55.684Z,8.61
2022-12-31T05:03:26.613Z,8.61
2022-12-31T05:06:01.866Z,8.62
2022-12-31T05:08:31.264Z,8.62
2022-12-31T05:11:00.971Z,8.61
2022-12-31T05:13:33.371Z,8.62
2022-12-31T05:16:03.813Z,8.64
2022-12-31T05:18:33.172Z,8.65
2022-12-31T05:21:02.130Z,8.67
2022-12-31T05:23:31.422Z,8.69
2022-12-31T05:26:00.744Z,8.72
2022-12-31T05:28:29.375Z,8.75
2022-12-31T05:30:58.823Z,8.77
2022-12-31T05:33:27.445Z,8.80
2022-12-31T05:35:58.832Z,8.82
2022-12-31T05:38:28.601Z,8.83
2022-12-31T05:41:02.690Z,8.86
2022-12-31T05:43:32.515Z,8.87
2022-12-31T05:46:02.611Z,8.91
2022-12-31T05:48:31.403Z,8.94
2022-12-31T05:51:00.694Z,8.96
2022-12-31T05:53:29.367Z,8.99
2022-12-31T05:55:58.084Z,9.03
2022-12-31T05:58:28.680Z,9.07
2022-12-31T06:00:57.440Z,9.12
2022-12-31T06:03:26.109Z,9.18
2022-12-31T06:05:55.134Z,9.25
2022-12-31T06:08:24.285Z,9.31
2022-12-31T06:10:55.256Z,9.36
2022-12-31T06:13:24.756Z,9.41
2022-12-31T06:15:53.395Z,9.45
2022-12-31T06:18:22.093Z,9.48
2022-12-31T06:20:51.371Z,9.50
2022-12-31T06:23:20.404Z,9.51
2022-12-31T06:25:49.160Z,9.52
2022-12-31T06:28:20.506Z,9.53
2022-12-31T06:30:49.575Z,9.54
2022-12-31T06:33:20.036Z,9.56
2022-12-31T06:35:48.627Z,9.58
2022-12-31T06:38:17.554Z,9.60
2022-12-31T06:40:46.458Z,9.61
2022-12-31T06:43:14.974Z,9.65
2022-12-31T06:45:43.814Z,9.68
2022-12-31T06:48:13.152Z,9.70
2022-12-31T06:50:42.185Z,9.71
2022-12-31T06:53:10.826Z,9.71
2022-12-31T06:55:40.000Z,9.71
2022-12-31T06:58:13.682Z,9.70
2022-12-31T07:01:09.309Z,9.71
2022-12-31T07:03:46.877Z,9.73
2022-12-31T07:06:22.915Z,9.77
2022-12-31T07:09:21.444Z,9.84
2022-12-31T07:12:09.227Z,9.93
2022-12-31T07:14:49.884Z,10.01
2022-12-31T07:17:44.254Z,10.08
2022-12-31T07:20:16.365Z,10.14
2022-12-31T07:22:47.354Z,10.18
2022-12-31T07:25:19.948Z,10.20
2022-12-31T07:27:51.756Z,10.23
2022-12-31T07:30:27.230Z,10.27
2022-12-31T07:33:14.818Z,10.30
2022-12-31T07:36:09.528Z,10.35
2022-12-31T07:39:00.418Z,10.38
2022-12-31T07:41:32.297Z,10.42
2022-12-31T07:44:16.425Z,10.49
2022-12-31T07:47:00.082Z,10.56
2022-12-31T07:49:31.011Z,10.62
2022-12-31T07:52:00.334Z,10.65
2022-12-31T07:54:29.140Z,10.67
2022-12-31T07:56:58.181Z,10.70
2022-12-31T07:59:41.833Z,10.74
2022-12-31T08:02:26.365Z,10.78
2022-12-31T08:05:07.270Z,10.82
2022-12-31T08:07:48.403Z,10.86
2022-12-31T08:10:29.531Z,10.88
2022-12-31T08:13:03.370Z,10.89
2022-12-31T08:15:32.911Z,10.92
2022-12-31T08:18:01.804Z,10.95
2022-12-31T08:20:32.889Z,10.97
2022-12-31T08:23:28.500Z,10.99
2022-12-31T08:26:16.021Z,11.01
2022-12-31T08:28:53.396Z,11.05
2022-12-31T08:31:28.246Z,11.08
2022-12-31T08:34:24.092Z,11.11
2022-12-31T08:37:06.887Z,11.15
2022-12-31T08:39:45.741Z,11.19
2022-12-31T08:46:54.639Z,11.35
2022-12-31T08:49:53.400Z,11.49
2022-12-31T08:52:26.781Z,11.61
2022-12-31T08:54:55.852Z,11.72
2022-12-31T08:57:40.083Z,11.82
2022-12-31T09:00:15.456Z,11.89
2022-12-31T09:03:02.949Z,11.90
2022-12-31T09:05:47.714Z,11.89
2022-12-31T09:08:51.453Z,11.91
2022-12-31T09:11:34.944Z,11.97
2022-12-31T09:14:49.953Z,12.05
2022-12-31T09:17:40.655Z,12.16
2022-12-31T09:20:46.156Z,12.29
2022-12-31T09:23:15.151Z,12.36
2022-12-31T09:25:58.375Z,12.38
2022-12-31T09:28:45.241Z,12.40
2022-12-31T09:31:27.133Z,12.50
2022-12-31T09:34:37.989Z,12.60
2022-12-31T09:37:21.325Z,12.66
2022-12-31T09:39:51.441Z,12.69
2022-12-31T09:42:29.226Z,12.70
2022-12-31T09:45:26.928Z,12.67
2022-12-31T09:48:14.580Z,12.64
2022-12-31T09:51:05.807Z,12.63
2022-12-31T09:54:00.089Z,12.62
2022-12-31T09:56:57.111Z,12.64
2022-12-31T09:59:44.426Z,12.65
2022-12-31T10:02:20.812Z,12.64
2022-12-31T10:05:00.584Z,12.61
2022-12-31T10:07:29.536Z,12.61
2022-12-31T10:10:10.084Z,12.61
2022-12-31T10:13:15.878Z,12.65
2022-12-31T10:16:08.116Z,12.73
2022-12-31T10:19:06.569Z,12.78
2022-12-31T10:21:56.883Z,12.79
2022-12-31T10:24:46.087Z,12.80
2022-12-31T10:27:40.531Z,12.81
2022-12-31T10:30:21.774Z,12.84
2022-12-31T10:32:57.596Z,12.91
2022-12-31T10:35:40.418Z,12.96
2022-12-31T10:38:38.052Z,12.99
2022-12-31T10:41:19.419Z,13.02
2022-12-31T10:43:57.051Z,13.03
2022-12-31T10:46:50.718Z,13.02
2022-12-31T10:49:50.698Z,13.01
2022-12-31T10:52:28.410Z,13.02
2022-12-31T10:55:34.497Z,13.03
2022-12-31T10:58:25.511Z,13.09
2022-12-31T11:01:01.059Z,13.13
2022-12-31T11:04:01.725Z,13.16
2022-12-31T11:06:51.747Z,13.19
2022-12-31T11:09:44.877Z,13.22
2022-12-31T11:12:41.437Z,13.27
2022-12-31T11:15:22.490Z,13.32
2022-12-31T11:18:13.483Z,13.35
2022-12-31T11:20:58.126Z,13.36
2022-12-31T11:23:46.832Z,13.41
2022-12-31T11:26:18.747Z,13.45
2022-12-31T11:29:18.419Z,13.49
2022-12-31T11:32:04.348Z,13.52
2022-12-31T11:34:49.714Z,13.54
2022-12-31T11:37:33.764Z,13.57
2022-12-31T11:40:08.943Z,13.59
2022-12-31T11:42:55.629Z,13.62
2022-12-31T11:45:50.245Z,13.68
2022-12-31T11:48:32.572Z,13.75
2022-12-31T11:51:29.054Z,13.80
2022-12-31T11:54:34.051Z,13.83
2022-12-31T11:57:08.864Z,13.84
2022-12-31T11:59:38.489Z,13.83
2022-12-31T12:02:37.614Z,13.83
2022-12-31T12:05:11.101Z,13.82
2022-12-31T12:07:40.291Z,13.83
2022-12-31T12:10:22.767Z,13.86
2022-12-31T12:12:53.426Z,13.89
2022-12-31T12:15:30.180Z,13.90
2022-12-31T12:18:05.319Z,13.91
2022-12-31T12:20:37.901Z,13.92
2022-12-31T12:23:26.672Z,13.92
2022-12-31T12:25:55.792Z,13.90
2022-12-31T12:28:26.915Z,13.88
2022-12-31T12:31:04.617Z,13.87
2022-12-31T12:33:46.870Z,13.85
2022-12-31T12:36:18.470Z,13.82
2022-12-31T12:38:47.937Z,13.80
2022-12-31T12:41:25.613Z,13.77
2022-12-31T12:44:13.860Z,13.73
2022-12-31T12:46:48.996Z,13.70
2022-12-31T12:49:31.944Z,13.69
2022-12-31T12:52:16.099Z,13.69
2022-12-31T12:55:12.132Z,13.71
2022-12-31T12:58:25.800Z,13.77
2022-12-31T13:01:09.861Z,13.85
2022-12-31T13:04:34.061Z,13.89
2022-12-31T13:07:18.093Z,13.92
2022-12-31T13:10:03.184Z,13.94
2022-12-31T13:15:53.876Z,13.95
2022-12-31T13:18:52.917Z,13.97
2022-12-31T13:21:24.818Z,13.99
2022-12-31T13:24:32.551Z,13.99
2022-12-31T13:27:29.293Z,14.00
2022-12-31T13:30:03.112Z,14.02
2022-12-31T13:32:42.913Z,14.06
2022-12-31T13:35:30.681Z,14.10
2022-12-31T13:38:12.888Z,14.14
2022-12-31T13:41:09.933Z,14.14
2022-12-31T13:44:14.211Z,14.14
2022-12-31T13:47:04.775Z,14.13
2022-12-31T13:49:36.510Z,14.11
2022-12-31T13:52:11.401Z,14.10
2022-12-31T13:54:51.999Z,14.10
2022-12-31T13:57:47.726Z,14.11
2022-12-31T14:00:25.721Z,14.11
2022-12-31T14:03:20.031Z,14.12
2022-12-31T14:06:04.046Z,14.11
2022-12-31T14:08:33.105Z,14.06
2022-12-31T14:11:23.307Z,14.01
2022-12-31T14:14:28.323Z,13.99
2022-12-31T14:17:17.837Z,13.99
2022-12-31T14:19:46.554Z,14.00
2022-12-31T14:22:33.135Z,14.01
2022-12-31T14:25:06.617Z,14.00
2022-12-31T14:27:43.661Z,13.97
2022-12-31T14:30:21.047Z,13.94
2022-12-31T14:33:08.739Z,13.91
2022-12-31T14:36:08.262Z,13.89
2022-12-31T14:38:57.923Z,13.89
2022-12-31T14:41:52.949Z,13.88
2022-12-31T14:44:25.131Z,13.86
2022-12-31T14:47:16.470Z,13.83
2022-12-31T14:50:05.626Z,13.81
2022-12-31T14:52:48.013Z,13.80
2022-12-31T14:55:23.229Z,13.80
2022-12-31T14:58:26.538Z,13.83
2022-12-31T15:00:53.963Z,13.84
2022-12-31T15:03:26.979Z,13.85
2022-12-31T15:06:28.843Z,13.87
2022-12-31T15:09:35.467Z,13.86
2022-12-31T15:12:19.897Z,13.85
2022-12-31T15:15:05.592Z,13.86
2022-12-31T15:17:40.338Z,13.88
2022-12-31T15:20:45.157Z,13.89
2022-12-31T15:23:25.912Z,13.91
2022-12-31T15:26:06.144Z,13.93
2022-12-31T15:28:38.827Z,13.94
2022-12-31T15:31:17.469Z,13.94
2022-12-31T15:34:39.973Z,13.93
2022-12-31T15:37:30.602Z,13.95
2022-12-31T15:40:17.999Z,13.97
2022-12-31T15:42:52.890Z,13.99
2022-12-31T15:45:41.066Z,13.99
2022-12-31T15:48:31.791Z,13.97
2022-12-31T15:51:05.209Z,13.96
2022-12-31T15:53:43.434Z,13.96
2022-12-31T15:56:20.000Z,13.97
2022-12-31T15:58:55.037Z,14.00
2022-12-31T16:01:30.320Z,14.04
2022-12-31T16:04:14.858Z,14.08
2022-12-31T16:06:50.319Z,14.10
2022-12-31T16:09:31.842Z,14.12
2022-12-31T16:12:02.601Z,14.16
2022-12-31T16:14:45.539Z,14.19
2022-12-31T16:17:29.687Z,14.24
2022-12-31T16:20:00.146Z,14.26
2022-12-31T16:22:30.119Z,14.27
2022-12-31T16:27:51.949Z,14.23
2022-12-31T16:30:22.529Z,14.22
2022-12-31T16:32:52.744Z,14.22
2022-12-31T16:35:23.621Z,14.19
2022-12-31T16:38:11.551Z,14.18
2022-12-31T16:41:04.345Z,14.19
2022-12-31T16:43:39.104Z,14.18
2022-12-31T16:46:30.677Z,14.17
2022-12-31T16:49:04.012Z,14.17
2022-12-31T16:51:37.648Z,14.16
2022-12-31T16:54:35.662Z,14.17
2022-12-31T16:57:06.503Z,14.20
2022-12-31T16:59:40.421Z,14.21
2022-12-31T17:02:20.789Z,14.21
2022-12-31T17:04:56.040Z,14.21
2022-12-31T17:07:31.481Z,14.20
2022-12-31T17:10:03.504Z,14.19
2022-12-31T17:12:53.013Z,14.20
2022-12-31T17:15:41.907Z,14.23
2022-12-31T17:18:21.020Z,14.24
2022-12-31T17:20:52.805Z,14.25
2022-12-31T17:23:32.181Z,14.25
2022-12-31T17:26:11.632Z,14.28
2022-12-31T17:28:46.963Z,14.28
2022-12-31T17:31:36.407Z,14.28
2022-12-31T17:34:14.164Z,14.28
2022-12-31T17:37:19.888Z,14.27
2022-12-31T17:39:50.956Z,14.26
2022-12-31T17:42:38.623Z,14.25
2022-12-31T17:45:21.335Z,14.24
2022-12-31T17:47:54.092Z,14.23
2022-12-31T17:50:26.109Z,14.24
2022-12-31T17:53:22.635Z,14.26
2022-12-31T17:55:54.544Z,14.27
2022-12-31T17:58:29.769Z,14.28
2022-12-31T18:00:59.788Z,14.29
2022-12-31T18:03:51.250Z,14.32
2022-12-31T18:06:56.561Z,14.35
2022-12-31T18:09:45.695Z,14.35
2022-12-31T18:12:35.732Z,14.37
2022-12-31T18:15:36.635Z,14.37
2022-12-31T18:18:32.161Z,14.35
2022-12-31T18:21:41.914Z,14.35
2022-12-31T18:24:27.238Z,14.36
2022-12-31T18:27:32.989Z,14.39
2022-12-31T18:30:27.656Z,14.42
2022-12-31T18:33:28.262Z,14.43
2022-12-31T18:36:22.783Z,14.45
2022-12-31T18:39:21.771Z,14.47
2022-12-31T18:41:57.751Z,14.46
2022-12-31T18:44:27.179Z,14.45
2022-12-31T18:46:56.315Z,14.45
2022-12-31T18:49:25.007Z,14.46
2022-12-31T18:51:55.507Z,14.49
2022-12-31T18:54:23.939Z,14.53
2022-12-31T18:56:56.891Z,14.55
2022-12-31T18:59:26.328Z,14.57
2022-12-31T19:01:55.167Z,14.57
2022-12-31T19:04:28.111Z,14.57
2022-12-31T19:06:58.029Z,14.54
2022-12-31T19:12:15.997Z,14.51
2022-12-31T19:14:45.811Z,14.50
2022-12-31T19:17:14.808Z,14.51
2022-12-31T19:19:44.145Z,14.53
2022-12-31T19:22:15.931Z,14.55
2022-12-31T19:24:45.409Z,14.56
2022-12-31T19:27:14.411Z,14.58
2022-12-31T19:29:43.163Z,14.61
2022-12-31T19:32:12.855Z,14.64
2022-12-31T19:34:44.385Z,14.65
2022-12-31T19:37:16.332Z,14.66
2022-12-31T19:39:47.761Z,14.67
2022-12-31T19:42:17.266Z,14.67
2022-12-31T19:44:46.135Z,14.66
2022-12-31T19:47:17.507Z,14.65
2022-12-31T19:49:46.230Z,14.65
2022-12-31T19:52:15.049Z,14.65
2022-12-31T19:54:44.016Z,14.64
2022-12-31T19:57:12.668Z,14.63
2022-12-31T19:59:41.561Z,14.62
2022-12-31T20:02:10.777Z,14.59
2022-12-31T20:04:39.574Z,14.55
2022-12-31T20:07:08.483Z,14.50
2022-12-31T20:09:37.492Z,14.47
2022-12-31T20:12:06.462Z,14.46
2022-12-31T20:14:35.431Z,14.44
2022-12-31T20:17:04.572Z,14.43
2022-12-31T20:19:33.250Z,14.42
2022-12-31T20:22:02.940Z,14.41
2022-12-31T20:24:32.283Z,14.40
2022-12-31T20:27:00.975Z,14.36
2022-12-31T20:29:30.008Z,14.34
2022-12-31T20:31:59.772Z,14.32
2022-12-31T20:34:29.141Z,14.32
2022-12-31T20:36:57.969Z,14.32
2022-12-31T20:39:27.316Z,14.30
2022-12-31T20:41:55.935Z,14.27
2022-12-31T20:44:24.453Z,14.23
2022-12-31T20:46:53.736Z,14.20
2022-12-31T20:49:37.533Z,14.20
2022-12-31T20:52:11.839Z,14.20
2022-12-31T20:54:40.438Z,14.20
2022-12-31T20:57:08.985Z,14.17
2022-12-31T20:59:39.033Z,14.14
2022-12-31T21:02:20.932Z,14.13
2022-12-31T21:05:04.125Z,14.16
2022-12-31T21:07:36.221Z,14.16
2022-12-31T21:10:06.423Z,14.18
2022-12-31T21:12:44.710Z,14.20
2022-12-31T21:15:14.321Z,14.23
2022-12-31T21:17:48.532Z,14.25
2022-12-31T21:20:18.410Z,14.27
2022-12-31T21:22:49.927Z,14.29
2022-12-31T21:25:19.396Z,14.31
2022-12-31T21:27:47.928Z,14.32
2022-12-31T21:30:18.708Z,14.34
2022-12-31T21:32:51.474Z,14.40
2022-12-31T21:38:12.925Z,14.47
2022-12-31T21:40:42.216Z,14.50
2022-12-31T21:43:11.998Z,14.51
2022-12-31T21:45:41.585Z,14.50
2022-12-31T21:48:21.760Z,14.49
2022-12-31T21:51:10.252Z,14.48
2022-12-31T21:53:39.229Z,14.50
2022-12-31T21:56:09.629Z,14.52
2022-12-31T21:58:44.990Z,14.53
2022-12-31T22:01:39.458Z,14.55
2022-12-31T22:04:35.352Z,14.55
2022-12-31T22:07:00.150Z,14.53
2022-12-31T22:09:28.851Z,14.52
2022-12-31T22:11:57.558Z,14.50
2022-12-31T22:14:26.493Z,14.50
2022-12-31T22:16:55.291Z,14.52
2022-12-31T22:19:25.033Z,14.53
2022-12-31T22:21:53.926Z,14.52
2022-12-31T22:24:22.726Z,14.53
2022-12-31T22:26:52.528Z,14.55
2022-12-31T22:29:24.068Z,14.57
2022-12-31T22:31:57.998Z,14.57
2022-12-31T22:34:32.937Z,14.57
2022-12-31T22:37:14.389Z,14.54
2022-12-31T22:39:51.877Z,14.50
2022-12-31T22:42:20.936Z,14.47
2022-12-31T22:44:50.442Z,14.45
2022-12-31T22:47:19.495Z,14.42
2022-12-31T22:49:48.325Z,14.40
2022-12-31T22:52:18.303Z,14.39
2022-12-31T22:54:47.210Z,14.39
2022-12-31T22:57:20.007Z,14.38
2022-12-31T22:59:51.738Z,14.37
2022-12-31T23:02:20.487Z,14.34
2022-12-31T23:04:49.400Z,14.30
2022-12-31T23:07:18.683Z,14.26
2022-12-31T23:10:28.939Z,14.24
2022-12-31T23:13:19.302Z,14.23
2022-12-31T23:16:08.036Z,14.26
2022-12-31T23:18:59.215Z,14.29
2022-12-31T23:21:51.127Z,14.34
2022-12-31T23:24:26.118Z,14.38
2022-12-31T23:26:58.905Z,14.38
2022-12-31T23:29:28.636Z,14.36
2022-12-31T23:31:57.483Z,14.36
2022-12-31T23:34:26.115Z,14.35
2022-12-31T23:36:55.753Z,14.34
2022-12-31T23:39:24.763Z,14.35
2022-12-31T23:41:53.502Z,14.38
2022-12-31T23:44:22.746Z,14.43
2022-12-31T23:46:52.295Z,14.47
2022-12-31T23:49:21.213Z,14.52
2022-12-31T23:51:51.350Z,14.55
2022-12-31T23:54:20.442Z,14.56
2022-12-31T23:56:50.117Z,14.57
2022-12-31T23:59:19.508Z,14.57
